KLMT/LMT METAR and TAF weather

Enter ICAO airport designator
Station Type Date Time Source
KLMT METAR 2022/01/25 04:53 UTC NOAA

KLMT 250453Z AUTO 00000KT 10SM CLR M03/M06 A3016 RMK AO2 SLP237 T10331056


Station Type Date Time Source
KLMT Decoded METAR 2022/01/25 04:53 UTC NOAA

KLAMATH FALLS INTERNATIONAL AIRPORT, OR, United States (KLMT) 42-09N 121-43W 1246M
Jan 24, 2022 - 11:53 PM EST / 2022.01.25 0453 UTC
Wind: Calm:0
Visibility: 10 mile(s):0
Sky conditions: clear
Temperature: 26.1 F (-3.3 C)
Dew Point: 21.9 F (-5.6 C)
Relative Humidity: 84%
Pressure (altimeter): 30.16 in. Hg (1021 hPa)
ob: KLMT 250453Z AUTO 00000KT 10SM CLR M03/M06 A3016 RMK AO2 SLP237 T10331056
cycle: 5

Station Type Date Time Source
KLMT TAF 2022/01/25 06:22 UTC NOAA

TAF KLMT 250520Z 2506/2606 VRB03KT P6SM SKC

Example: see airport list